Latest Coastal Weather Observations for Kiama

IDN60701

Issued at 2:11 am EDT Thursday 30 March 2017 (issued every 10 minutes, with the page automatically refreshed every 10 minutes)

About coastal observations | Map of coastal stations | Coastal observations for NSW | Marine services | Other Formats
Station Details ID: 068242 Name: KIAMA (BOMBO HEADLAND) Lat: -34.65 Lon: 150.86 Height: 15.5 m
Data from the previous 72 hours. | See also: Recent months at Kiama
Date/Time
EDT
Temp
°C
Wind Pressure Rain since
9am
mm
Weather Cloud Vis
km
Sea
Height
m
Swell
Dir  Spd
kts
Gust
kts
hPa Trend Height
m
Period
s
Dir
30/02:00am 23.1 CALM 0 2 - - 0.0 - - - - - - -
30/01:30am 23.1 N 4 4 - - 0.0 - - - - - - -
30/01:00am 23.0 N 4 5 - - 0.0 - - - - - - -
30/12:30am 23.1 NNW 1 2 - - 0.0 - - - - - - -
30/12:00am 23.1 N 3 4 - - 0.0 - - - - - - -
 
Date/Time
EDT
Temp
°C
Wind Pressure Rain since
9am
mm
Weather Cloud Vis
km
Sea
Height
m
Swell
Dir  Spd
kts
Gust
kts
hPa Trend Height
m
Period
s
Dir
29/11:30pm 23.1 N 2 3 - - 0.0 - - - - - - -
29/11:00pm 23.3 NW 1 2 - - 0.0 - - - - - - -
29/10:30pm 23.6 NNW 3 4 - - 0.0 - - - - - - -
29/10:00pm 23.5 NW 3 4 - - 0.0 - - - - - - -
29/09:30pm 23.5 NNW 3 5 - - 0.0 - - - - - - -
29/09:00pm 23.5 N 3 4 - - 0.0 - - - - - - -
29/08:30pm 23.6 N 3 3 - - 0.0 - - - - - - -
29/08:00pm 23.8 N 4 6 - - 0.0 - - - - - - -
29/07:30pm 23.9 N 6 7 - - 0.0 - - - - - - -
29/07:00pm 24.0 N 7 10 - - 0.0 - - - - - - -
29/06:30pm 24.2 N 8 12 - - 0.0 - - - - - - -
29/06:00pm 24.5 N 8 13 - - 0.0 - - - - - - -
29/05:30pm 24.8 NNE 8 13 - - 0.0 - - - - - - -
29/05:00pm 24.9 NNE 10 14 - - 0.0 - - - - - - -
29/04:30pm 25.1 NNE 11 14 - - 0.0 - - - - - - -
29/04:00pm 24.9 NNE 9 13 - - 0.0 - - - - - - -
29/03:30pm 25.7 NNE 8 10 - - 0.0 - - - - - - -
29/03:00pm 25.2 NNE 10 12 - - 0.0 - - - - - - -
29/02:30pm 25.8 NE 8 11 - - 0.0 - - - - - - -
29/02:00pm 25.9 NNE 10 14 - - 0.0 - - - - - - -
29/01:30pm 25.4 NNE 11 15 - - 0.0 - - - - - - -
29/01:00pm 25.5 NNE 10 14 - - 0.0 - - - - - - -
29/12:30pm 25.6 NE 9 12 - - 0.0 - - - - - - -
29/12:00pm 24.8 NNE 7 10 - - 0.0 - - - - - - -
29/11:30am 23.6 NNE 7 9 - - 0.0 - - - - - - -
29/11:00am 23.5 NNE 5 7 - - 0.0 - - - - - - -
29/10:30am 23.3 NNE 5 7 - - 0.0 - - - - - - -
29/10:00am 22.7 N 3 5 - - 0.0 - - - - - - -
29/09:30am 22.2 N 3 4 - - 0.0 - - - - - - -
29/09:00am 21.8 NNW 3 5 - - 0.0 - - - - - - -
29/08:30am 21.5 NNW 3 4 - - 0.0 - - - - - - -
29/08:00am 21.3 NNW 3 5 - - 0.0 - - - - - - -
29/07:30am 21.1 NW 3 4 - - 0.0 - - - - - - -
29/07:00am 21.2 E 1 3 - - 0.0 - - - - - - -
29/06:30am 21.2 CALM 0 0 - - 0.0 - - - - - - -
29/06:00am 21.3 CALM 0 0 - - 0.0 - - - - - - -
29/05:30am 21.3 CALM 0 0 - - 0.0 - - - - - - -
29/05:00am 21.4 CALM 0 0 - - 0.0 - - - - - - -
29/04:30am 21.3 CALM 0 0 - - 0.0 - - - - - - -
29/04:00am 21.2 CALM 0 0 - - 0.0 - - - - - - -
29/03:30am 21.2 CALM 0 2 - - 0.0 - - - - - - -
29/03:00am 21.2 SE 3 4 - - 0.0 - - - - - - -
29/02:30am 21.3 S 3 5 - - 0.0 - - - - - - -
29/02:00am 21.1 CALM 0 0 - - 0.0 - - - - - - -
29/01:30am 21.1 CALM 0 0 - - 0.0 - - - - - - -
29/01:00am 20.9 CALM 0 0 - - 0.0 - - - - - - -
29/12:30am 20.8 CALM 0 1 - - 0.0 - - - - - - -
29/12:00am 20.8 CALM 0 0 - - 0.0 - - - - - - -
 
Date/Time
EDT
Temp
°C
Wind Pressure Rain since
9am
mm
Weather Cloud Vis
km
Sea
Height
m
Swell
Dir  Spd
kts
Gust
kts
hPa Trend Height
m
Period
s
Dir
28/11:30pm 20.8 WNW 2 3 - - 0.0 - - - - - - -
28/11:00pm 20.7 W 2 3 - - 0.0 - - - - - - -
28/10:30pm 20.7 WNW 2 3 - - 0.0 - - - - - - -
28/10:00pm 20.6 W 4 5 - - 0.0 - - - - - - -
28/09:30pm 20.7 WNW 3 5 - - 0.0 - - - - - - -
28/09:00pm 20.8 WNW 4 5 - - 0.0 - - - - - - -
28/08:30pm 21.1 WNW 2 3 - - 0.0 - - - - - - -
28/08:00pm 21.3 SSE 2 3 - - 0.0 - - - - - - -
28/07:30pm 21.2 SE 3 4 - - 0.0 - - - - - - -
28/07:00pm 21.2 SSE 3 5 - - 0.0 - - - - - - -
28/06:30pm 21.3 S 4 5 - - 0.0 - - - - - - -
28/06:00pm 21.2 SSW 4 6 - - 0.0 - - - - - - -
28/05:30pm 21.4 SSW 7 9 - - 0.0 - - - - - - -
28/05:00pm 21.7 SSW 9 12 - - 0.0 - - - - - - -
28/04:30pm 21.9 SSW 8 10 - - 0.0 - - - - - - -
28/04:00pm 21.9 SSW 9 11 - - 0.0 - - - - - - -
28/03:30pm 22.0 S 9 13 - - 0.0 - - - - - - -
28/03:00pm 22.3 S 9 13 - - 0.0 - - - - - - -
28/02:30pm 22.4 S 10 12 - - 0.0 - - - - - - -
28/02:00pm 22.6 SSW 8 12 - - 0.0 - - - - - - -
28/01:30pm 22.2 SSW 8 13 - - 0.0 - - - - - - -
28/01:00pm 22.2 SSW 8 11 - - 0.0 - - - - - - -
28/12:30pm 22.1 SSW 7 11 - - 0.0 - - - - - - -
28/12:00pm 22.3 SSW 3 5 - - 0.0 - - - - - - -
28/11:30am 21.6 SW 7 11 - - 0.0 - - - - - - -
28/11:00am 21.6 SW 4 7 - - 0.0 - - - - - - -
28/10:30am 21.5 SW 4 8 - - 0.0 - - - - - - -
28/10:00am 21.2 SW 9 13 - - 0.0 - - - - - - -
28/09:30am 21.1 SSW 7 10 - - 0.0 - - - - - - -
28/09:00am 20.7 SW 8 12 - - 0.0 - - - - - - -
28/08:30am 20.4 SW 9 14 - - 0.0 - - - - - - -
28/08:00am 20.2 SSW 10 15 - - 0.0 - - - - - - -
28/07:30am 19.8 SSW 11 15 - - 0.0 - - - - - - -
28/07:00am 19.6 SSW 11 15 - - 0.0 - - - - - - -
28/06:30am 19.9 SSW 12 17 - - 0.0 - - - - - - -
28/06:00am 19.9 SSW 12 17 - - 0.0 - - - - - - -
28/05:30am 20.1 SSW 14 20 - - 0.0 - - - - - - -
28/05:00am 20.3 SSW 19 26 - - 0.0 - - - - - - -
28/04:30am 20.1 SSW 19 25 - - 0.0 - - - - - - -
28/04:00am 19.9 SSW 19 26 - - 0.0 - - - - - - -
28/03:30am 20.7 SSW 15 20 - - 0.0 - - - - - - -
28/03:00am 20.9 S 14 21 - - 0.0 - - - - - - -
28/02:30am 21.2 SSW 11 14 - - 0.0 - - - - - - -
28/02:00am 21.4 SSW 13 20 - - 0.0 - - - - - - -
28/01:38am 22.2 SSW 11 23 - - 0.0 - - - - - - -
28/01:30am 22.3 SSW 7 11 - - 0.0 - - - - - - -
28/01:00am 22.5 SW 7 11 - - 0.0 - - - - - - -
28/12:30am 22.3 SE 2 4 - - 0.0 - - - - - - -
28/12:00am 22.2 WSW 4 9 - - 0.0 - - - - - - -
 
Date/Time
EDT
Temp
°C
Wind Pressure Rain since
9am
mm
Weather Cloud Vis
km
Sea
Height
m
Swell
Dir  Spd
kts
Gust
kts
hPa Trend Height
m
Period
s
Dir
27/11:30pm 22.5 NW 4 7 - - 0.0 - - - - - - -
27/11:00pm 22.5 NNW 5 8 - - 0.0 - - - - - - -
27/10:30pm 22.3 N 4 6 - - 0.0 - - - - - - -
27/10:00pm 22.6 NW 2 5 - - 0.0 - - - - - - -
27/09:30pm 22.8 N 6 9 - - 0.0 - - - - - - -
27/09:00pm 22.8 N 6 9 - - 0.0 - - - - - - -
27/08:30pm 22.9 N 6 11 - - 0.0 - - - - - - -
27/08:00pm 22.9 N 15 19 - - 0.0 - - - - - - -
27/07:30pm 23.0 N 17 22 - - 0.0 - - - - - - -
27/07:00pm 23.1 NNE 15 21 - - 0.0 - - - - - - -
27/06:30pm 23.2 NNE 16 23 - - 0.0 - - - - - - -
27/06:00pm 23.5 NNE 16 22 - - 0.0 - - - - - - -
27/05:30pm 23.7 NNE 16 22 - - 0.0 - - - - - - -
27/05:00pm 24.0 NNE 14 23 - - 0.0 - - - - - - -
27/04:30pm 24.1 NNE 15 22 - - 0.0 - - - - - - -
27/04:00pm 24.2 NNE 16 25 - - 0.0 - - - - - - -
27/03:56pm 24.2 NNE 15 25 - - 0.0 - - - - - - -
27/03:30pm 24.1 NNE 17 24 - - 0.0 - - - - - - -
27/03:00pm 24.2 NNE 17 23 - - 0.0 - - - - - - -
27/02:30pm 24.3 NNE 16 22 - - 0.0 - - - - - - -
27/02:00pm 24.5 NNE 17 21 - - 0.0 - - - - - - -
27/01:30pm 24.6 NNE 16 21 - - 0.0 - - - - - - -
27/01:00pm 25.0 NNE 14 19 - - 0.0 - - - - - - -
27/12:30pm 24.9 NNE 14 18 - - 0.0 - - - - - - -
27/12:00pm 24.7 NNE 14 20 - - 0.0 - - - - - - -
27/11:30am 24.8 NNE 11 16 - - 0.0 - - - - - - -
27/11:00am 24.6 N 10 15 - - 0.0 - - - - - - -
27/10:30am 23.9 N 11 15 - - 0.0 - - - - - - -
27/10:00am 23.3 N 10 15 - - 0.0 - - - - - - -
27/09:30am 22.9 NNW 7 12 - - 0.0 - - - - - - -
27/09:00am 22.2 NNW 9 13 - - 0.0 - - - - - - -
27/08:30am 21.2 NNW 7 11 - - 0.0 - - - - - - -
27/08:00am 19.7 NW 4 6 - - 0.0 - - - - - - -
27/07:30am 19.1 NNW 5 7 - - 0.0 - - - - - - -
27/07:00am 18.9 NW 4 6 - - 0.0 - - - - - - -
27/06:30am 18.9 NW 4 6 - - 0.0 - - - - - - -
27/06:00am 19.1 NW 5 6 - - 0.0 - - - - - - -
27/05:30am 19.4 NNW 4 6 - - 0.0 - - - - - - -
27/05:00am 19.3 NNW 4 6 - - 0.0 - - - - - - -
27/04:30am 19.4 NNW 4 6 - - 0.0 - - - - - - -
27/04:00am 19.6 NNW 4 6 - - 0.0 - - - - - - -
27/03:30am 19.7 NNW 4 6 - - 0.0 - - - - - - -
27/03:00am 20.0 NNW 4 7 - - 0.0 - - - - - - -
27/02:30am 20.1 NNW 4 5 - - 0.0 - - - - - - -

Other Formats:

Comma delimited format used in spreadsheet applications
http://www.bom.gov.au/fwo/IDN60701/IDN60701.95749.axf

JavaScript Object Notation format (JSON) in row-major order
http://www.bom.gov.au/fwo/IDN60701/IDN60701.95749.json